createdAt,value
2023-04-15T00:00:58.639Z,47.77
2023-04-15T00:03:25.592Z,47.91
2023-04-15T00:05:52.393Z,48.14
2023-04-15T00:08:19.118Z,48.79
2023-04-15T00:10:45.730Z,48.10
2023-04-15T00:13:12.730Z,48.50
2023-04-15T00:15:39.296Z,48.63
2023-04-15T00:18:07.413Z,48.61
2023-04-15T00:20:34.157Z,48.88
2023-04-15T00:23:01.943Z,49.38
2023-04-15T00:25:28.528Z,48.82
2023-04-15T00:27:55.097Z,49.58
2023-04-15T00:30:22.066Z,49.48
2023-04-15T00:32:48.865Z,49.59
2023-04-15T00:35:16.967Z,49.84
2023-04-15T00:37:45.570Z,49.74
2023-04-15T00:40:13.591Z,49.65
2023-04-15T00:42:40.173Z,49.58
2023-04-15T00:45:08.101Z,50.31
2023-04-15T00:47:36.305Z,50.35
2023-04-15T00:50:03.034Z,50.13
2023-04-15T00:52:31.016Z,50.09
2023-04-15T00:54:57.501Z,50.65
2023-04-15T00:57:24.153Z,50.48
2023-04-15T00:59:52.219Z,50.91
2023-04-15T01:02:18.979Z,50.77
2023-04-15T01:04:45.664Z,50.70
2023-04-15T01:07:12.217Z,50.41
2023-04-15T01:09:43.321Z,50.94
2023-04-15T01:12:12.024Z,50.87
2023-04-15T01:14:38.694Z,50.48
2023-04-15T01:17:05.469Z,50.91
2023-04-15T01:19:32.288Z,50.99
2023-04-15T01:21:59.247Z,51.13
2023-04-15T01:24:27.705Z,51.04
2023-04-15T01:26:55.739Z,51.47
2023-04-15T01:29:22.427Z,51.29
2023-04-15T01:31:52.813Z,51.62
2023-04-15T01:34:19.640Z,51.58
2023-04-15T01:36:46.710Z,51.35
2023-04-15T01:39:13.299Z,51.88
2023-04-15T01:41:40.035Z,51.96
2023-04-15T01:44:08.491Z,51.87
2023-04-15T01:46:35.840Z,52.30
2023-04-15T01:49:02.595Z,52.37
2023-04-15T01:51:29.339Z,52.56
2023-04-15T01:53:55.926Z,52.84
2023-04-15T01:56:22.975Z,52.66
2023-04-15T01:58:49.545Z,52.66
2023-04-15T02:01:17.635Z,53.00
2023-04-15T02:03:44.348Z,53.22
2023-04-15T02:06:11.060Z,52.84
2023-04-15T02:08:37.704Z,52.96
2023-04-15T02:11:04.384Z,52.68
2023-04-15T02:13:30.962Z,52.67
2023-04-15T02:15:57.704Z,52.69
2023-04-15T02:18:25.674Z,52.60
2023-04-15T02:20:52.689Z,52.50
2023-04-15T02:23:19.261Z,52.31
2023-04-15T02:25:53.439Z,52.21
2023-04-15T02:28:21.276Z,52.48
2023-04-15T02:30:48.392Z,52.50
2023-04-15T02:33:14.953Z,52.14
2023-04-15T02:35:42.905Z,53.14
2023-04-15T02:38:09.461Z,52.38
2023-04-15T02:40:35.893Z,53.28
2023-04-15T02:43:02.951Z,52.67
2023-04-15T02:45:29.502Z,52.77
2023-04-15T02:47:56.090Z,53.13
2023-04-15T02:50:22.796Z,53.59
2023-04-15T02:52:51.411Z,53.32
2023-04-15T02:55:17.996Z,54.04
2023-04-15T02:57:44.624Z,54.33
2023-04-15T03:00:12.420Z,54.60
2023-04-15T03:02:39.713Z,53.93
2023-04-15T03:05:07.705Z,53.84
2023-04-15T03:07:34.283Z,54.14
2023-04-15T03:10:02.226Z,54.31
2023-04-15T03:12:28.759Z,54.86
2023-04-15T03:14:55.330Z,54.90
2023-04-15T03:17:22.047Z,54.88
2023-04-15T03:19:48.624Z,54.50
2023-04-15T03:22:15.372Z,54.82
2023-04-15T03:24:41.916Z,54.53
2023-04-15T03:27:09.823Z,56.32
2023-04-15T03:29:36.414Z,56.71
2023-04-15T03:32:03.420Z,56.01
2023-04-15T03:34:29.961Z,55.36
2023-04-15T03:36:56.703Z,55.95
2023-04-15T03:39:23.348Z,56.35
2023-04-15T03:41:50.083Z,56.50
2023-04-15T03:44:17.977Z,56.25
2023-04-15T03:46:44.704Z,56.59
2023-04-15T03:49:11.256Z,57.64
2023-04-15T03:51:37.819Z,57.13
2023-04-15T03:54:04.487Z,57.06
2023-04-15T03:56:31.052Z,57.34
2023-04-15T03:58:57.596Z,58.52
2023-04-15T04:01:25.653Z,59.21
2023-04-15T04:03:52.321Z,59.15
2023-04-15T04:06:19.343Z,58.83
2023-04-15T04:08:45.925Z,59.27
2023-04-15T04:11:12.403Z,60.05
2023-04-15T04:13:39.391Z,59.83
2023-04-15T04:16:06.589Z,60.09
2023-04-15T04:18:34.785Z,60.13
2023-04-15T04:21:01.375Z,59.76
2023-04-15T04:23:28.041Z,60.13
2023-04-15T04:25:54.705Z,60.08
2023-04-15T04:28:21.405Z,59.89
2023-04-15T04:30:47.982Z,59.75
2023-04-15T04:33:14.609Z,58.92
2023-04-15T04:35:42.669Z,59.11
2023-04-15T04:38:09.336Z,59.36
2023-04-15T04:40:35.914Z,59.89
2023-04-15T04:43:03.045Z,59.60
2023-04-15T04:45:29.590Z,59.55
2023-04-15T04:47:56.303Z,59.04
2023-04-15T04:50:22.975Z,59.20
2023-04-15T04:52:50.923Z,59.32
2023-04-15T04:55:17.712Z,59.48
2023-04-15T04:57:44.345Z,59.90
2023-04-15T05:00:11.894Z,60.19
2023-04-15T05:02:38.832Z,60.57
2023-04-15T05:05:06.673Z,60.34
2023-04-15T05:07:33.290Z,59.63
2023-04-15T05:10:01.632Z,60.20
2023-04-15T05:12:28.267Z,59.67
2023-04-15T05:14:54.996Z,59.22
2023-04-15T05:17:21.835Z,60.14
2023-04-15T05:19:48.426Z,59.85
2023-04-15T05:22:15.011Z,59.89
2023-04-15T05:24:41.627Z,59.49
2023-04-15T05:27:09.674Z,59.30
2023-04-15T05:29:36.225Z,58.27
2023-04-15T05:32:02.858Z,58.98
2023-04-15T05:34:29.433Z,59.84
2023-04-15T05:36:56.108Z,58.25
2023-04-15T05:39:22.674Z,58.13
2023-04-15T05:41:49.146Z,55.57
2023-04-15T05:44:17.113Z,53.49
2023-04-15T05:46:43.752Z,52.26
2023-04-15T05:49:10.835Z,50.82
2023-04-15T05:51:37.367Z,50.72
2023-04-15T05:54:04.425Z,52.60
2023-04-15T05:56:30.966Z,52.15
2023-04-15T05:58:57.745Z,52.30
2023-04-15T06:01:25.747Z,52.48
2023-04-15T06:03:52.587Z,54.74
2023-04-15T06:06:19.343Z,54.16
2023-04-15T06:08:45.903Z,53.87
2023-04-15T06:11:12.737Z,54.92
2023-04-15T06:13:39.284Z,54.57
2023-04-15T06:16:06.487Z,54.06
2023-04-15T06:18:34.465Z,53.18
2023-04-15T06:21:01.068Z,52.23
2023-04-15T06:23:28.132Z,52.04
2023-04-15T06:25:54.697Z,51.19
2023-04-15T06:28:21.256Z,52.31
2023-04-15T06:30:47.979Z,52.29
2023-04-15T06:33:14.558Z,51.68
2023-04-15T06:35:42.492Z,51.40
2023-04-15T06:38:09.020Z,49.88
2023-04-15T06:40:35.611Z,49.31
2023-04-15T06:43:02.374Z,48.70
2023-04-15T06:45:28.977Z,48.10
2023-04-15T06:47:55.581Z,48.41
2023-04-15T06:50:22.283Z,48.82
2023-04-15T06:52:50.313Z,47.74
2023-04-15T06:55:16.895Z,47.50
2023-04-15T06:57:43.570Z,48.51
2023-04-15T07:00:11.520Z,48.14
2023-04-15T07:02:38.467Z,47.01
2023-04-15T07:05:06.573Z,46.30
2023-04-15T07:07:33.296Z,47.82
2023-04-15T07:10:01.239Z,50.59
2023-04-15T07:12:27.846Z,51.35
2023-04-15T07:14:54.569Z,50.88
2023-04-15T07:17:21.568Z,52.17
2023-04-15T07:19:48.163Z,52.48
2023-04-15T07:22:14.853Z,51.39
2023-04-15T07:24:41.876Z,50.63
2023-04-15T07:27:09.791Z,50.86
2023-04-15T07:29:36.476Z,50.35
2023-04-15T07:32:03.289Z,50.81
2023-04-15T07:34:30.803Z,50.12
2023-04-15T07:36:58.766Z,49.43
2023-04-15T07:39:25.309Z,49.95
2023-04-15T07:41:51.886Z,49.05
2023-04-15T07:44:20.052Z,48.75
2023-04-15T07:46:46.621Z,48.42
2023-04-15T07:49:13.179Z,46.98
2023-04-15T07:51:39.878Z,48.00
2023-04-15T07:54:06.486Z,48.36
2023-04-15T07:56:33.058Z,49.72
2023-04-15T07:58:59.891Z,48.96
2023-04-15T08:01:28.052Z,48.51
2023-04-15T08:03:55.147Z,48.27
2023-04-15T08:06:21.834Z,47.08
2023-04-15T08:08:48.578Z,49.04
2023-04-15T08:11:15.421Z,49.11
2023-04-15T08:13:42.255Z,49.49
2023-04-15T08:16:18.038Z,50.03
2023-04-15T08:18:46.127Z,48.99
2023-04-15T08:21:12.793Z,48.09
2023-04-15T08:23:39.862Z,50.72
2023-04-15T08:26:06.494Z,50.27
2023-04-15T08:28:33.149Z,49.20
2023-04-15T08:30:59.796Z,49.21
2023-04-15T08:33:26.348Z,49.59
2023-04-15T08:35:54.687Z,50.14
2023-04-15T08:38:21.240Z,50.89
2023-04-15T08:40:47.765Z,52.02
2023-04-15T08:43:20.941Z,51.41
2023-04-15T08:45:50.084Z,50.46
2023-04-15T08:48:17.489Z,49.22
2023-04-15T08:50:44.705Z,48.63
2023-04-15T08:53:13.049Z,49.78
2023-04-15T08:55:43.499Z,50.47
2023-04-15T08:58:10.855Z,49.29
2023-04-15T09:00:37.757Z,48.49
2023-04-15T09:03:04.946Z,48.02
2023-04-15T09:05:32.680Z,47.53
2023-04-15T09:07:59.324Z,48.31
2023-04-15T09:10:27.699Z,48.14
2023-04-15T09:12:54.504Z,48.46
2023-04-15T09:15:21.344Z,48.01
2023-04-15T09:17:48.125Z,48.12
2023-04-15T09:20:16.233Z,47.13
2023-04-15T09:22:45.008Z,46.53
2023-04-15T09:25:29.735Z,45.36
2023-04-15T09:27:58.874Z,46.83
2023-04-15T09:30:25.738Z,45.13
2023-04-15T09:32:54.206Z,45.79
2023-04-15T09:35:21.561Z,45.83
2023-04-15T09:37:48.577Z,46.54
2023-04-15T09:40:15.378Z,46.12
2023-04-15T09:42:56.210Z,47.12
2023-04-15T09:45:25.705Z,47.50
2023-04-15T09:47:53.759Z,48.03
2023-04-15T09:50:20.686Z,46.72
2023-04-15T09:52:47.766Z,46.53
2023-04-15T09:55:15.241Z,46.04
2023-04-15T09:57:42.062Z,44.44
2023-04-15T10:00:10.899Z,45.64
2023-04-15T10:02:37.704Z,44.71
2023-04-15T10:05:06.343Z,45.51
2023-04-15T10:07:33.313Z,46.66
2023-04-15T10:10:00.523Z,46.98
2023-04-15T10:12:28.587Z,45.85
2023-04-15T10:14:59.413Z,46.67
2023-04-15T10:17:29.870Z,44.37
2023-04-15T10:20:00.699Z,46.72
2023-04-15T10:22:28.198Z,46.83
2023-04-15T10:24:56.382Z,46.51
2023-04-15T10:27:23.346Z,47.45
2023-04-15T10:29:50.777Z,47.49
2023-04-15T10:32:19.228Z,47.46
2023-04-15T10:34:48.636Z,48.17
2023-04-15T10:37:21.350Z,49.74
2023-04-15T10:39:48.356Z,50.32
2023-04-15T10:42:16.448Z,50.25
2023-04-15T10:44:44.540Z,49.52
2023-04-15T10:47:12.460Z,49.45
2023-04-15T10:49:51.059Z,51.86
2023-04-15T10:52:22.344Z,51.62
2023-04-15T10:54:48.948Z,52.98
2023-04-15T10:57:21.298Z,53.26
2023-04-15T11:00:02.691Z,53.77
2023-04-15T11:02:39.284Z,53.28
2023-04-15T11:05:08.742Z,53.05
2023-04-15T11:07:40.609Z,54.55
2023-04-15T11:10:51.726Z,54.08
2023-04-15T11:13:21.024Z,53.65
2023-04-15T11:15:49.095Z,50.88
2023-04-15T11:18:16.751Z,51.85
2023-04-15T11:20:46.356Z,52.00
2023-04-15T11:23:15.310Z,53.40
2023-04-15T11:25:44.354Z,53.30
2023-04-15T11:28:12.060Z,54.29
2023-04-15T11:30:39.924Z,54.76
2023-04-15T11:33:08.331Z,54.74
2023-04-15T11:35:35.438Z,54.68
2023-04-15T11:38:05.680Z,54.60
2023-04-15T11:40:32.571Z,54.59
2023-04-15T11:43:07.202Z,53.78
2023-04-15T11:45:34.587Z,53.85
2023-04-15T11:48:08.404Z,55.00
2023-04-15T11:50:35.663Z,55.51
2023-04-15T11:53:07.654Z,56.65
2023-04-15T11:55:42.345Z,57.22
2023-04-15T11:58:10.548Z,56.70
2023-04-15T12:00:38.285Z,56.65
2023-04-15T12:03:19.422Z,56.63
2023-04-15T12:06:06.157Z,57.11
2023-04-15T12:08:55.896Z,57.34
2023-04-15T12:11:33.294Z,57.89
2023-04-15T12:14:05.434Z,58.68
2023-04-15T12:16:36.607Z,59.09
2023-04-15T12:19:14.908Z,58.47
2023-04-15T12:21:45.370Z,58.60
2023-04-15T12:24:14.021Z,58.72
2023-04-15T12:26:44.966Z,58.23
2023-04-15T12:29:13.383Z,59.26
2023-04-15T12:31:48.166Z,59.50
2023-04-15T12:34:14.964Z,59.76
2023-04-15T12:36:41.597Z,59.51
2023-04-15T12:39:08.304Z,59.47
2023-04-15T12:41:36.374Z,59.19
2023-04-15T12:44:03.242Z,60.05
2023-04-15T12:46:30.172Z,59.92
2023-04-15T12:48:57.070Z,59.88
2023-04-15T12:51:23.639Z,58.98
2023-04-15T12:53:50.975Z,59.10
2023-04-15T12:56:17.551Z,59.63
2023-04-15T12:58:45.587Z,59.64
2023-04-15T13:01:12.350Z,58.82
2023-04-15T13:03:39.195Z,59.00
2023-04-15T13:06:05.986Z,59.42
2023-04-15T13:08:33.171Z,58.95
2023-04-15T13:10:59.761Z,59.07
2023-04-15T13:13:26.633Z,59.36
2023-04-15T13:15:54.695Z,58.86
2023-04-15T13:18:21.532Z,58.23
2023-04-15T13:20:48.259Z,58.32
2023-04-15T13:23:14.918Z,58.13
2023-04-15T13:25:41.881Z,57.81
2023-04-15T13:28:08.498Z,57.20
2023-04-15T13:30:35.033Z,57.24
2023-04-15T13:33:03.053Z,56.41
2023-04-15T13:35:29.631Z,57.19
2023-04-15T13:37:56.198Z,56.46
2023-04-15T13:40:23.007Z,56.57
2023-04-15T13:42:50.962Z,56.27
2023-04-15T13:45:17.809Z,56.10
2023-04-15T13:47:44.491Z,55.80
2023-04-15T13:50:12.589Z,55.73
2023-04-15T13:52:39.771Z,55.33
2023-04-15T13:55:18.797Z,57.47
2023-04-15T13:57:46.967Z,58.60
2023-04-15T14:00:14.465Z,58.54
2023-04-15T14:02:41.280Z,58.54
2023-04-15T14:05:08.811Z,59.04
2023-04-15T14:07:36.958Z,58.42
2023-04-15T14:10:04.142Z,58.13
2023-04-15T14:12:30.761Z,57.96
2023-04-15T14:14:57.273Z,57.41
2023-04-15T14:17:23.959Z,57.64
2023-04-15T14:19:50.578Z,58.18
2023-04-15T14:22:17.122Z,58.45
2023-04-15T14:24:45.321Z,58.91
2023-04-15T14:27:11.907Z,60.48
2023-04-15T14:29:38.514Z,63.17
2023-04-15T14:32:12.201Z,63.49
2023-04-15T14:34:39.465Z,64.60
2023-04-15T14:37:06.825Z,64.21
2023-04-15T14:39:33.526Z,63.77
2023-04-15T14:42:01.574Z,63.17
2023-04-15T14:44:28.384Z,63.11
2023-04-15T14:46:55.614Z,63.20
2023-04-15T14:49:22.180Z,63.08
2023-04-15T14:51:48.736Z,63.94
2023-04-15T14:54:15.491Z,64.34
2023-04-15T14:56:42.154Z,64.58
2023-04-15T14:59:10.326Z,64.93
2023-04-15T15:01:36.958Z,65.24
2023-04-15T15:04:04.233Z,65.08
2023-04-15T15:06:31.090Z,64.46
2023-04-15T15:08:57.682Z,65.50
2023-04-15T15:11:24.253Z,65.33
2023-04-15T15:13:50.845Z,66.38
2023-04-15T15:16:19.055Z,67.29
2023-04-15T15:18:45.883Z,67.71
2023-04-15T15:21:13.123Z,68.15
2023-04-15T15:23:39.698Z,68.97
2023-04-15T15:26:06.308Z,69.50
2023-04-15T15:28:33.708Z,69.39
2023-04-15T15:31:00.566Z,69.45
2023-04-15T15:33:30.112Z,69.23
2023-04-15T15:35:58.032Z,69.63
2023-04-15T15:38:24.608Z,68.53
2023-04-15T15:40:51.280Z,67.71
2023-04-15T15:43:17.872Z,67.24
2023-04-15T15:45:44.543Z,67.19
2023-04-15T15:48:11.183Z,67.63
2023-04-15T15:50:39.247Z,66.38
2023-04-15T15:53:05.803Z,66.93
2023-04-15T15:55:32.598Z,67.20
2023-04-15T15:57:59.145Z,67.92
2023-04-15T16:00:25.821Z,68.00
2023-04-15T16:03:06.784Z,67.99
2023-04-15T16:05:34.537Z,68.02
2023-04-15T16:08:02.500Z,67.58
2023-04-15T16:10:29.100Z,67.95
2023-04-15T16:12:55.726Z,67.65
2023-04-15T16:15:22.774Z,67.66
2023-04-15T16:17:51.107Z,68.75
2023-04-15T16:20:17.984Z,68.80
2023-04-15T16:22:44.616Z,68.81
2023-04-15T16:25:12.881Z,68.31
2023-04-15T16:30:10.464Z,68.47
2023-04-15T16:32:37.112Z,68.83
2023-04-15T16:35:04.182Z,68.33
2023-04-15T16:37:32.983Z,68.36
2023-04-15T16:39:59.743Z,68.25
2023-04-15T16:42:27.900Z,67.89
2023-04-15T16:44:54.491Z,68.20
2023-04-15T16:47:21.040Z,67.75
2023-04-15T16:49:48.096Z,68.02
2023-04-15T16:52:14.650Z,67.78
2023-04-15T16:54:41.255Z,68.35
2023-04-15T16:57:07.925Z,69.30
2023-04-15T16:59:35.979Z,70.77
2023-04-15T17:02:02.874Z,71.56
2023-04-15T17:04:29.972Z,72.52
2023-04-15T17:06:56.759Z,72.26
2023-04-15T17:09:23.357Z,71.43
2023-04-15T17:11:50.059Z,71.21
2023-04-15T17:14:16.633Z,71.08
2023-04-15T17:16:44.586Z,72.04
2023-04-15T17:19:11.156Z,71.41
2023-04-15T17:21:37.764Z,72.17
2023-04-15T17:24:05.394Z,71.85
2023-04-15T17:26:32.036Z,72.64
2023-04-15T17:28:58.690Z,71.89
2023-04-15T17:31:25.457Z,72.53
2023-04-15T17:34:01.470Z,72.26
2023-04-15T17:36:35.899Z,73.62
2023-04-15T17:39:02.807Z,75.64
2023-04-15T17:41:29.691Z,75.58
2023-04-15T17:43:56.375Z,76.85
2023-04-15T17:46:23.187Z,75.28
2023-04-15T17:48:49.787Z,75.78
2023-04-15T17:51:17.989Z,75.55
2023-04-15T17:53:44.792Z,76.16
2023-04-15T17:56:11.500Z,76.54
2023-04-15T17:58:38.184Z,78.24
2023-04-15T18:01:04.734Z,77.39
2023-04-15T18:03:31.475Z,78.83
2023-04-15T18:05:58.087Z,78.78
2023-04-15T18:08:26.022Z,78.80
2023-04-15T18:10:52.746Z,79.15
2023-04-15T18:13:19.368Z,78.77
2023-04-15T18:15:47.405Z,79.05
2023-04-15T18:18:14.205Z,79.17
2023-04-15T18:20:41.047Z,79.38
2023-04-15T18:23:07.830Z,80.24
2023-04-15T18:25:36.014Z,79.98
2023-04-15T18:28:02.587Z,79.66
2023-04-15T18:30:29.266Z,79.49
2023-04-15T18:32:55.956Z,79.88
2023-04-15T18:35:22.591Z,80.12
2023-04-15T18:37:49.654Z,80.19
2023-04-15T18:40:16.286Z,81.03
2023-04-15T18:42:44.245Z,81.24
2023-04-15T18:45:11.058Z,80.76
2023-04-15T18:47:37.728Z,81.30
2023-04-15T18:50:04.888Z,81.67
2023-04-15T18:52:31.536Z,80.44
2023-04-15T18:54:58.194Z,81.10
2023-04-15T18:57:32.317Z,81.57
2023-04-15T19:00:03.143Z,81.48
2023-04-15T19:02:29.833Z,81.72
2023-04-15T19:04:56.560Z,82.46
2023-04-15T19:07:23.170Z,81.58
2023-04-15T19:09:49.856Z,81.23
2023-04-15T19:12:16.449Z,81.15
2023-04-15T19:14:43.421Z,81.08
2023-04-15T19:17:11.546Z,81.35
2023-04-15T19:19:38.114Z,81.87
2023-04-15T19:22:04.859Z,81.07
2023-04-15T19:24:32.939Z,81.45
2023-04-15T19:27:00.135Z,80.83
2023-04-15T19:29:26.850Z,80.57
2023-04-15T19:31:53.747Z,81.22
2023-04-15T19:34:21.678Z,82.47
2023-04-15T19:36:48.585Z,82.35
2023-04-15T19:39:15.447Z,81.49
2023-04-15T19:41:42.106Z,81.55
2023-04-15T19:44:08.687Z,81.21
2023-04-15T19:46:35.541Z,82.04
2023-04-15T19:49:02.304Z,82.36
2023-04-15T19:51:30.324Z,81.63
2023-04-15T19:53:56.913Z,81.63
2023-04-15T19:56:23.968Z,82.66
2023-04-15T19:58:50.686Z,84.00
2023-04-15T20:01:17.321Z,83.38
2023-04-15T20:03:44.258Z,83.10
2023-04-15T20:06:11.012Z,83.47
2023-04-15T20:08:39.194Z,82.49
2023-04-15T20:11:05.977Z,82.68
2023-04-15T20:13:32.633Z,82.32
2023-04-15T20:15:59.351Z,82.27
2023-04-15T20:18:25.946Z,81.65
2023-04-15T20:20:52.755Z,82.05
2023-04-15T20:23:19.440Z,82.98
2023-04-15T20:25:47.363Z,83.38
2023-04-15T20:28:14.033Z,83.77
2023-04-15T20:30:40.616Z,83.44
2023-04-15T20:33:07.263Z,83.73
2023-04-15T20:35:34.062Z,84.91
2023-04-15T20:38:01.004Z,83.57
2023-04-15T20:40:27.561Z,81.86
2023-04-15T20:42:55.603Z,82.48
2023-04-15T20:45:22.043Z,81.29
2023-04-15T20:47:48.674Z,82.44
2023-04-15T20:50:15.468Z,82.56
2023-04-15T20:52:42.372Z,82.36
2023-04-15T20:55:09.292Z,82.47
2023-04-15T20:57:35.928Z,82.27
2023-04-15T21:00:05.067Z,81.56
2023-04-15T21:02:31.720Z,82.19
2023-04-15T21:04:58.993Z,82.02
2023-04-15T21:07:25.602Z,81.95
2023-04-15T21:09:52.245Z,82.91
2023-04-15T21:12:18.790Z,82.97
2023-04-15T21:14:45.406Z,82.83
2023-04-15T21:17:13.330Z,82.96
2023-04-15T21:19:40.027Z,83.83
2023-04-15T21:22:06.552Z,83.07
2023-04-15T21:24:33.156Z,81.61
2023-04-15T21:26:59.800Z,82.12
2023-04-15T21:29:26.429Z,82.95
2023-04-15T21:31:53.284Z,83.28
2023-04-15T21:34:21.584Z,82.89
2023-04-15T21:36:48.291Z,83.07
2023-04-15T21:39:14.874Z,81.47
2023-04-15T21:41:41.492Z,82.72
2023-04-15T21:44:08.232Z,81.38
2023-04-15T21:46:35.580Z,81.96
2023-04-15T21:49:02.915Z,83.45
2023-04-15T21:51:30.894Z,82.76
2023-04-15T21:53:57.459Z,82.91
2023-04-15T21:56:24.873Z,83.06
2023-04-15T21:58:56.513Z,83.61
2023-04-15T22:01:23.114Z,82.93
2023-04-15T22:03:49.938Z,82.01
2023-04-15T22:06:16.897Z,84.07
2023-04-15T22:08:55.128Z,83.36
2023-04-15T22:11:23.992Z,82.45
2023-04-15T22:13:50.589Z,82.67
2023-04-15T22:16:17.220Z,82.46
2023-04-15T22:18:43.795Z,81.87
2023-04-15T22:21:10.363Z,81.42
2023-04-15T22:23:36.931Z,81.55
2023-04-15T22:26:07.022Z,80.03
2023-04-15T22:28:33.640Z,80.20
2023-04-15T22:31:00.249Z,80.33
2023-04-15T22:33:26.800Z,80.11
2023-04-15T22:35:53.322Z,79.24
2023-04-15T22:38:20.422Z,79.07
2023-04-15T22:40:47.009Z,79.82
2023-04-15T22:43:14.949Z,79.39
2023-04-15T22:45:41.678Z,79.14
2023-04-15T22:48:08.259Z,78.36
2023-04-15T22:50:37.249Z,78.31
2023-04-15T22:53:03.936Z,78.69
2023-04-15T22:55:30.737Z,79.75
2023-04-15T22:57:57.303Z,79.27
2023-04-15T23:00:25.271Z,79.45
2023-04-15T23:02:51.967Z,79.13
2023-04-15T23:05:18.782Z,79.12
2023-04-15T23:07:45.489Z,81.21
2023-04-15T23:10:12.252Z,81.22
2023-04-15T23:12:38.808Z,81.43
2023-04-15T23:15:06.280Z,81.17
2023-04-15T23:17:34.326Z,81.89
2023-04-15T23:20:00.923Z,81.43
2023-04-15T23:22:27.830Z,81.35
2023-04-15T23:24:54.372Z,81.41
2023-04-15T23:27:20.919Z,82.29
2023-04-15T23:29:47.975Z,80.68
2023-04-15T23:32:14.800Z,80.93
2023-04-15T23:34:42.979Z,81.11
2023-04-15T23:37:09.654Z,80.60
2023-04-15T23:39:36.171Z,80.88
2023-04-15T23:42:03.219Z,80.24
2023-04-15T23:44:29.858Z,79.91
2023-04-15T23:46:56.644Z,79.85
2023-04-15T23:49:23.428Z,79.92
2023-04-15T23:51:51.724Z,80.07
2023-04-15T23:54:18.280Z,79.70
2023-04-15T23:56:44.878Z,79.19
2023-04-15T23:59:11.628Z,79.22
